createdAt,value
2019-05-09T00:02:38.337Z,6.00
2019-05-09T00:05:08.933Z,4.00
2019-05-09T00:07:39.282Z,4.00
2019-05-09T00:10:09.242Z,1.80
2019-05-09T00:12:39.071Z,0.00
2019-05-09T00:15:08.774Z,4.00
2019-05-09T00:17:43.824Z,3.00
2019-05-09T00:20:30.290Z,3.00
2019-05-09T00:23:03.283Z,4.00
2019-05-09T00:25:33.978Z,1.80
2019-05-09T00:28:05.843Z,2.60
2019-05-09T00:30:56.713Z,3.00
2019-05-09T00:33:29.055Z,4.00
2019-05-09T00:35:58.833Z,3.00
2019-05-09T00:38:43.433Z,3.40
2019-05-09T00:41:13.950Z,2.20
2019-05-09T00:43:48.626Z,4.00
2019-05-09T00:46:23.994Z,3.00
2019-05-09T00:49:18.856Z,3.00
2019-05-09T00:51:48.772Z,5.60
2019-05-09T00:54:20.700Z,3.80
2019-05-09T00:56:50.862Z,3.60
2019-05-09T00:59:20.592Z,3.60
2019-05-09T01:01:50.596Z,3.80
2019-05-09T01:04:20.407Z,1.00
2019-05-09T01:06:50.092Z,3.80
2019-05-09T01:09:20.698Z,6.00
2019-05-09T01:11:50.423Z,3.00
2019-05-09T01:14:20.133Z,4.00
2019-05-09T01:16:49.945Z,4.00
2019-05-09T01:19:19.750Z,3.20
2019-05-09T01:21:49.562Z,3.60
2019-05-09T01:24:19.158Z,0.40
2019-05-09T01:26:48.795Z,4.40
2019-05-09T01:29:19.112Z,3.00
2019-05-09T01:31:49.045Z,3.40
2019-05-09T01:34:23.964Z,3.20
2019-05-09T01:37:11.115Z,4.80
2019-05-09T01:39:40.967Z,3.00
2019-05-09T01:42:11.187Z,4.20
2019-05-09T01:44:40.876Z,3.40
2019-05-09T01:47:11.099Z,3.00
2019-05-09T01:49:43.132Z,4.00
2019-05-09T01:52:13.735Z,3.20
2019-05-09T01:54:45.237Z,3.20
2019-05-09T01:57:15.282Z,3.00
2019-05-09T01:59:44.984Z,3.80
2019-05-09T02:02:15.010Z,4.40
2019-05-09T02:04:44.871Z,3.20
2019-05-09T02:07:14.438Z,1.00
2019-05-09T02:09:45.095Z,3.00
2019-05-09T02:12:14.842Z,3.20
2019-05-09T02:14:54.354Z,0.00
2019-05-09T02:17:58.219Z,6.00
2019-05-09T02:20:17.418Z,4.00
2019-05-09T02:22:47.120Z,5.20
2019-05-09T02:25:16.838Z,4.80
2019-05-09T02:27:48.156Z,4.00
2019-05-09T02:30:18.376Z,4.00
2019-05-09T02:32:48.106Z,3.60
2019-05-09T02:35:17.748Z,7.20
2019-05-09T02:37:49.802Z,3.00
2019-05-09T02:40:19.247Z,4.40
2019-05-09T02:42:49.224Z,3.20
2019-05-09T02:45:19.563Z,3.20
2019-05-09T02:47:49.258Z,4.80
2019-05-09T02:50:19.705Z,4.80
2019-05-09T02:52:49.512Z,4.00
2019-05-09T02:55:19.299Z,4.00
2019-05-09T02:57:50.807Z,6.00
2019-05-09T03:00:39.861Z,4.00
2019-05-09T03:03:19.796Z,4.80
2019-05-09T03:05:49.487Z,4.00
2019-05-09T03:08:19.612Z,4.00
2019-05-09T03:10:49.495Z,3.20
2019-05-09T03:13:19.462Z,4.00
2019-05-09T03:15:51.021Z,4.80
2019-05-09T03:18:21.085Z,6.00
2019-05-09T03:21:00.564Z,5.40
2019-05-09T03:23:30.156Z,3.00
2019-05-09T03:26:00.220Z,4.00
2019-05-09T03:28:49.218Z,4.00
2019-05-09T03:31:20.027Z,4.60
2019-05-09T03:33:50.454Z,6.80
2019-05-09T03:36:21.302Z,5.60
2019-05-09T03:38:51.438Z,3.20
2019-05-09T03:41:21.200Z,3.80
2019-05-09T03:43:51.009Z,6.00
2019-05-09T03:46:38.404Z,7.40
2019-05-09T03:49:08.928Z,4.40
2019-05-09T03:51:39.182Z,6.00
2019-05-09T03:54:09.209Z,6.00
2019-05-09T03:56:42.941Z,5.60
2019-05-09T03:59:12.822Z,5.20
2019-05-09T04:01:42.514Z,8.60
2019-05-09T04:04:12.117Z,6.00
2019-05-09T04:06:42.225Z,7.80
2019-05-09T04:09:12.342Z,5.60
2019-05-09T04:11:42.146Z,7.20
2019-05-09T04:14:17.562Z,5.80
2019-05-09T04:16:48.256Z,6.20
2019-05-09T04:19:18.023Z,5.20
2019-05-09T04:21:48.637Z,9.20
2019-05-09T04:24:18.217Z,6.40
2019-05-09T04:26:53.378Z,8.20
2019-05-09T04:29:24.125Z,7.00
2019-05-09T04:31:54.351Z,2.60
2019-05-09T04:34:23.922Z,6.00
2019-05-09T04:36:57.442Z,6.60
2019-05-09T04:39:28.368Z,6.20
2019-05-09T04:42:03.530Z,7.40
2019-05-09T04:44:57.490Z,6.40
2019-05-09T04:47:27.652Z,4.80
2019-05-09T04:49:58.442Z,7.00
2019-05-09T04:52:30.418Z,6.00
2019-05-09T04:55:00.187Z,7.80
2019-05-09T04:57:31.288Z,7.00
2019-05-09T05:00:02.461Z,6.00
2019-05-09T05:02:50.112Z,4.20
2019-05-09T05:05:20.087Z,3.60
2019-05-09T05:07:50.253Z,6.00
2019-05-09T05:10:19.954Z,7.40
2019-05-09T05:12:50.332Z,9.00
2019-05-09T05:15:20.725Z,7.00
2019-05-09T05:17:51.000Z,8.20
2019-05-09T05:20:23.804Z,6.40
2019-05-09T05:22:59.489Z,6.20
2019-05-09T05:25:29.196Z,5.00
2019-05-09T05:27:58.867Z,3.00
2019-05-09T05:30:29.252Z,7.40
2019-05-09T05:33:10.389Z,7.00
2019-05-09T05:35:47.911Z,4.00
2019-05-09T05:38:17.734Z,6.40
2019-05-09T05:40:49.687Z,4.00
2019-05-09T05:43:18.900Z,7.00
2019-05-09T05:45:58.785Z,9.00
2019-05-09T05:48:29.967Z,7.80
2019-05-09T05:50:59.442Z,5.60
2019-05-09T05:53:29.170Z,7.00
2019-05-09T05:55:58.978Z,4.80
2019-05-09T05:58:29.081Z,4.00
2019-05-09T06:00:59.130Z,6.20
2019-05-09T06:03:29.016Z,6.40
2019-05-09T06:05:59.289Z,7.40
2019-05-09T06:08:29.005Z,5.60
2019-05-09T06:10:58.659Z,5.60
2019-05-09T06:13:28.373Z,5.20
2019-05-09T06:15:59.095Z,4.40
2019-05-09T06:18:29.029Z,4.60
2019-05-09T06:20:58.763Z,6.00
2019-05-09T06:23:28.545Z,6.00
2019-05-09T06:25:59.279Z,4.40
2019-05-09T06:28:37.647Z,6.60
2019-05-09T06:31:09.953Z,6.00
2019-05-09T06:33:46.321Z,6.40
2019-05-09T06:36:11.147Z,4.40
2019-05-09T06:38:41.007Z,6.00
2019-05-09T06:41:12.245Z,3.20
2019-05-09T06:43:44.250Z,3.00
2019-05-09T06:46:29.456Z,6.00
2019-05-09T06:49:23.333Z,4.80
2019-05-09T06:51:35.399Z,4.00
2019-05-09T06:54:05.493Z,7.60
2019-05-09T06:56:35.258Z,4.20
2019-05-09T06:59:07.387Z,7.40
2019-05-09T07:01:57.975Z,4.00
2019-05-09T07:04:58.222Z,6.00
2019-05-09T07:07:53.351Z,2.20
2019-05-09T07:10:23.711Z,4.00
2019-05-09T07:12:53.236Z,3.60
2019-05-09T07:15:23.191Z,4.80
2019-05-09T07:17:53.777Z,5.20
2019-05-09T07:20:23.570Z,0.60
2019-05-09T07:22:58.349Z,1.00
2019-05-09T07:25:47.838Z,4.00
2019-05-09T07:28:20.505Z,3.20
2019-05-09T07:31:21.148Z,4.00
2019-05-09T07:33:59.478Z,1.00
2019-05-09T07:36:30.406Z,4.00
2019-05-09T07:39:01.135Z,3.20
2019-05-09T07:41:33.764Z,1.80
2019-05-09T07:44:03.564Z,3.80
2019-05-09T07:46:34.871Z,3.00
2019-05-09T07:49:08.631Z,3.80
2019-05-09T07:51:38.523Z,3.00
2019-05-09T07:54:20.562Z,3.00
2019-05-09T07:56:42.197Z,3.00
2019-05-09T07:59:12.014Z,3.80
2019-05-09T08:01:45.422Z,1.00
2019-05-09T08:04:18.222Z,2.60
2019-05-09T08:06:48.767Z,2.60
2019-05-09T08:09:18.855Z,3.00
2019-05-09T08:11:50.150Z,3.00
2019-05-09T08:14:21.414Z,4.00
2019-05-09T08:16:54.214Z,3.00
2019-05-09T08:19:24.414Z,1.80
2019-05-09T08:21:54.251Z,2.60
2019-05-09T08:24:24.045Z,4.00
2019-05-09T08:26:54.085Z,3.00
2019-05-09T08:29:24.535Z,2.60
2019-05-09T08:31:58.054Z,0.60
2019-05-09T08:34:28.486Z,1.00
2019-05-09T08:36:58.809Z,3.00
2019-05-09T08:39:28.734Z,1.00
2019-05-09T08:41:59.462Z,3.00
2019-05-09T08:44:31.242Z,1.00
2019-05-09T08:47:01.902Z,3.00
2019-05-09T08:49:41.823Z,3.80
2019-05-09T08:52:16.610Z,2.20
2019-05-09T08:54:51.378Z,3.60
2019-05-09T08:57:23.855Z,1.00
2019-05-09T08:59:53.680Z,1.00
2019-05-09T09:02:23.983Z,1.00
2019-05-09T09:04:53.801Z,1.00
2019-05-09T09:07:24.385Z,3.40
2019-05-09T09:09:53.950Z,2.40
2019-05-09T09:12:31.328Z,3.00
2019-05-09T09:14:55.209Z,3.00
2019-05-09T09:17:25.087Z,3.00
2019-05-09T09:19:54.750Z,2.60
2019-05-09T09:22:24.425Z,4.00
2019-05-09T09:24:54.026Z,3.00
2019-05-09T09:27:24.023Z,5.20
2019-05-09T09:29:53.779Z,1.80
2019-05-09T09:32:23.242Z,3.00
2019-05-09T09:34:53.293Z,3.00
2019-05-09T09:37:23.429Z,3.60
2019-05-09T09:39:53.435Z,3.00
2019-05-09T09:42:23.923Z,2.60
2019-05-09T09:44:58.543Z,2.80
2019-05-09T09:47:28.803Z,4.80
2019-05-09T09:50:00.530Z,5.20
2019-05-09T09:52:34.151Z,3.00
2019-05-09T09:55:01.594Z,3.60
2019-05-09T09:57:33.356Z,4.00
2019-05-09T10:00:20.563Z,6.80
2019-05-09T10:02:50.233Z,3.20
2019-05-09T10:05:20.882Z,4.00
2019-05-09T10:07:50.698Z,5.60
2019-05-09T10:10:34.035Z,6.00
2019-05-09T10:13:04.308Z,4.00
2019-05-09T10:15:58.886Z,3.60
2019-05-09T10:18:57.849Z,3.00
2019-05-09T10:21:30.886Z,3.40
2019-05-09T10:24:00.898Z,3.00
2019-05-09T10:26:30.461Z,1.00
2019-05-09T10:28:59.937Z,2.20
2019-05-09T10:31:30.733Z,2.60
2019-05-09T10:34:00.758Z,3.00
2019-05-09T10:36:30.670Z,3.00
2019-05-09T10:39:01.035Z,2.20
2019-05-09T10:41:31.117Z,3.60
2019-05-09T10:44:25.300Z,4.00
2019-05-09T10:47:02.537Z,1.00
2019-05-09T10:49:32.995Z,1.00
2019-05-09T10:52:03.764Z,1.00
2019-05-09T10:54:33.689Z,1.80
2019-05-09T10:57:03.702Z,1.80
2019-05-09T10:59:37.700Z,3.00
2019-05-09T11:02:09.518Z,1.80
2019-05-09T11:04:42.936Z,1.00
2019-05-09T11:07:11.144Z,1.40
2019-05-09T11:09:40.777Z,1.00
2019-05-09T11:12:10.291Z,3.00
2019-05-09T11:14:40.177Z,1.00
2019-05-09T11:17:18.447Z,0.80
2019-05-09T11:19:48.048Z,0.20
2019-05-09T11:22:18.440Z,1.00
2019-05-09T11:24:51.079Z,0.40
2019-05-09T11:27:29.086Z,1.00
2019-05-09T11:29:58.155Z,0.80
2019-05-09T11:32:27.967Z,1.00
2019-05-09T11:34:58.183Z,1.00
2019-05-09T11:37:29.204Z,1.00
2019-05-09T11:40:00.668Z,0.00
2019-05-09T11:42:33.414Z,5.00
2019-05-09T11:45:03.227Z,0.80
2019-05-09T11:47:39.708Z,0.00
2019-05-09T11:50:04.782Z,1.00
2019-05-09T11:52:34.427Z,0.80
2019-05-09T11:55:07.819Z,0.00
2019-05-09T11:57:38.453Z,1.00
2019-05-09T12:00:08.278Z,0.40
2019-05-09T12:02:38.651Z,1.00
2019-05-09T12:05:08.959Z,1.00
2019-05-09T12:07:38.930Z,1.00
2019-05-09T12:10:08.749Z,1.00
2019-05-09T12:12:39.151Z,0.60
2019-05-09T12:15:10.218Z,0.20
2019-05-09T12:17:56.548Z,1.00
2019-05-09T12:20:18.050Z,1.40
2019-05-09T12:22:49.688Z,0.80
2019-05-09T12:25:19.257Z,1.00
2019-05-09T12:27:48.907Z,1.00
2019-05-09T12:30:19.059Z,0.00
2019-05-09T12:32:49.136Z,0.00
2019-05-09T12:35:19.339Z,0.60
2019-05-09T12:37:49.110Z,1.00
2019-05-09T12:40:20.060Z,1.00
2019-05-09T12:42:50.540Z,1.00
2019-05-09T12:45:22.155Z,0.40
2019-05-09T12:48:06.095Z,0.00
2019-05-09T12:50:23.344Z,1.00
2019-05-09T12:52:54.399Z,1.00
2019-05-09T12:55:23.926Z,0.00
2019-05-09T12:57:53.893Z,1.00
2019-05-09T13:00:23.888Z,1.00
2019-05-09T13:02:53.635Z,0.80
2019-05-09T13:05:27.353Z,1.00
2019-05-09T13:07:57.821Z,1.00
2019-05-09T13:10:30.914Z,1.00
2019-05-09T13:13:00.752Z,1.00
2019-05-09T13:15:41.077Z,1.00
2019-05-09T13:18:21.844Z,1.00
2019-05-09T13:20:42.798Z,0.00
2019-05-09T13:23:12.776Z,0.40
2019-05-09T13:25:43.558Z,1.00
2019-05-09T13:28:13.301Z,0.60
2019-05-09T13:30:43.132Z,0.80
2019-05-09T13:33:13.079Z,1.00
2019-05-09T13:35:42.618Z,1.00
2019-05-09T13:38:12.083Z,0.00
2019-05-09T13:40:41.747Z,1.00
2019-05-09T13:43:11.293Z,0.00
2019-05-09T13:45:41.127Z,1.00
2019-05-09T13:48:27.046Z,1.00
2019-05-09T13:50:41.703Z,1.00
2019-05-09T13:53:11.500Z,0.80
2019-05-09T13:55:41.643Z,1.80
2019-05-09T13:58:13.379Z,1.00
2019-05-09T14:00:55.781Z,0.20
2019-05-09T14:03:15.049Z,1.00
2019-05-09T14:05:47.950Z,1.00
2019-05-09T14:08:18.196Z,0.00
2019-05-09T14:10:48.676Z,1.00
2019-05-09T14:13:19.206Z,1.00
2019-05-09T14:15:49.703Z,0.20
2019-05-09T14:18:19.785Z,0.80
2019-05-09T14:20:50.099Z,1.00
2019-05-09T14:23:19.664Z,1.00
2019-05-09T14:25:52.276Z,1.00
2019-05-09T14:28:21.693Z,1.40
2019-05-09T14:30:51.972Z,3.00
2019-05-09T14:33:21.481Z,0.00
2019-05-09T14:35:51.109Z,1.00
2019-05-09T14:38:20.641Z,2.60
2019-05-09T14:40:53.201Z,0.80
2019-05-09T14:43:23.034Z,0.80
2019-05-09T14:45:52.603Z,0.00
2019-05-09T14:48:25.320Z,2.60
2019-05-09T14:50:55.353Z,1.00
2019-05-09T14:53:24.986Z,0.00
2019-05-09T14:55:55.174Z,2.60
2019-05-09T14:58:25.126Z,1.00
2019-05-09T15:00:55.030Z,3.00
2019-05-09T15:03:24.706Z,1.00
2019-05-09T15:05:57.364Z,2.20
2019-05-09T15:08:27.984Z,1.00
2019-05-09T15:10:58.370Z,1.00
2019-05-09T15:13:28.716Z,0.00
2019-05-09T15:16:01.129Z,1.00
2019-05-09T15:18:32.103Z,3.00
2019-05-09T15:21:01.914Z,1.40
2019-05-09T15:23:33.564Z,1.40
2019-05-09T15:26:03.662Z,1.00
2019-05-09T15:28:33.500Z,1.40
2019-05-09T15:31:08.709Z,1.40
2019-05-09T15:33:37.690Z,1.00
2019-05-09T15:36:09.183Z,1.00
2019-05-09T15:38:43.119Z,6.00
2019-05-09T15:41:12.313Z,1.00
2019-05-09T15:43:49.529Z,1.00
2019-05-09T15:46:27.957Z,1.00
2019-05-09T15:48:58.279Z,1.00
2019-05-09T15:51:28.214Z,2.20
2019-05-09T15:53:58.250Z,3.00
2019-05-09T15:56:28.847Z,3.60
2019-05-09T15:58:58.689Z,1.00
2019-05-09T16:01:28.914Z,1.80
2019-05-09T16:03:58.631Z,1.00
2019-05-09T16:06:32.896Z,0.20
2019-05-09T16:09:00.670Z,3.40
2019-05-09T16:11:30.250Z,1.00
2019-05-09T16:14:03.015Z,3.00
2019-05-09T16:16:31.205Z,1.00
2019-05-09T16:19:01.030Z,1.00
2019-05-09T16:21:30.823Z,0.40
2019-05-09T16:24:00.415Z,3.00
2019-05-09T16:26:30.414Z,0.20
2019-05-09T16:28:59.977Z,5.20
2019-05-09T16:31:30.563Z,3.00
2019-05-09T16:34:09.163Z,3.00
2019-05-09T16:36:42.016Z,1.00
2019-05-09T16:39:15.069Z,0.00
2019-05-09T16:41:45.142Z,1.00
2019-05-09T16:44:15.164Z,3.00
2019-05-09T16:46:45.188Z,2.60
2019-05-09T16:49:17.520Z,3.00
2019-05-09T16:51:48.529Z,3.00
2019-05-09T16:54:18.106Z,3.60
2019-05-09T16:56:48.404Z,3.40
2019-05-09T16:59:18.500Z,3.80
2019-05-09T17:01:50.277Z,4.00
2019-05-09T17:04:19.976Z,3.00
2019-05-09T17:06:51.238Z,3.00
2019-05-09T17:09:24.140Z,3.20
2019-05-09T17:11:54.131Z,4.00
2019-05-09T17:14:23.647Z,4.00
2019-05-09T17:16:53.698Z,3.00
2019-05-09T17:19:25.163Z,2.60
2019-05-09T17:22:14.670Z,3.00
2019-05-09T17:24:48.212Z,4.80
2019-05-09T17:27:18.816Z,3.00
2019-05-09T17:29:48.668Z,3.00
2019-05-09T17:32:19.010Z,4.00
2019-05-09T17:34:49.334Z,3.40
2019-05-09T17:37:18.970Z,3.40
2019-05-09T17:39:54.486Z,3.80
2019-05-09T17:42:27.715Z,4.00
2019-05-09T17:45:00.312Z,3.40
2019-05-09T17:47:30.325Z,3.00
2019-05-09T17:50:07.694Z,5.20
2019-05-09T17:52:37.490Z,4.40
2019-05-09T17:55:07.932Z,6.00
2019-05-09T17:57:38.811Z,4.80
2019-05-09T18:00:12.870Z,6.00
2019-05-09T18:02:42.739Z,6.60
2019-05-09T18:05:12.421Z,8.20
2019-05-09T18:07:42.550Z,6.80
2019-05-09T18:10:12.391Z,4.80
2019-05-09T18:12:44.368Z,4.00
2019-05-09T18:15:15.419Z,4.00
2019-05-09T18:17:45.194Z,4.00
2019-05-09T18:20:17.435Z,3.80
2019-05-09T18:22:47.954Z,7.00
2019-05-09T18:25:18.885Z,4.00
2019-05-09T18:27:49.247Z,7.00
2019-05-09T18:30:18.895Z,4.00
2019-05-09T18:33:10.604Z,5.20
2019-05-09T18:35:40.790Z,6.40
2019-05-09T18:38:11.658Z,6.00
2019-05-09T18:40:41.488Z,7.00
2019-05-09T18:43:12.088Z,6.00
2019-05-09T18:45:44.136Z,5.60
2019-05-09T18:48:14.206Z,4.40
2019-05-09T18:50:44.059Z,5.20
2019-05-09T18:53:14.400Z,4.00
2019-05-09T18:55:44.492Z,4.00
2019-05-09T18:58:17.205Z,3.40
2019-05-09T19:00:47.094Z,4.80
2019-05-09T19:03:18.158Z,4.00
2019-05-09T19:05:47.920Z,4.40
2019-05-09T19:08:17.918Z,4.00
2019-05-09T19:13:27.350Z,6.20
2019-05-09T19:16:33.898Z,6.00
2019-05-09T19:19:16.838Z,4.00
2019-05-09T19:21:50.106Z,4.20
2019-05-09T19:24:19.739Z,3.00
2019-05-09T19:26:50.361Z,3.60
2019-05-09T19:29:22.319Z,3.00
2019-05-09T19:31:53.466Z,4.00
2019-05-09T19:34:28.321Z,3.40
2019-05-09T19:36:57.995Z,3.00
2019-05-09T19:39:34.778Z,3.00
2019-05-09T19:42:04.914Z,3.80
2019-05-09T19:44:34.938Z,1.00
2019-05-09T19:47:05.344Z,1.00
2019-05-09T19:49:35.038Z,1.80
2019-05-09T19:52:05.323Z,0.00
2019-05-09T19:54:35.419Z,3.60
2019-05-09T19:57:05.413Z,2.20
2019-05-09T19:59:38.704Z,1.80
2019-05-09T20:02:21.145Z,3.00
2019-05-09T20:04:55.357Z,1.80
2019-05-09T20:07:24.905Z,4.80
2019-05-09T20:10:04.066Z,1.00
2019-05-09T20:12:48.462Z,1.40
2019-05-09T20:15:19.653Z,3.00
2019-05-09T20:17:50.409Z,3.00
2019-05-09T20:20:24.144Z,3.00
2019-05-09T20:22:53.316Z,2.60
2019-05-09T20:25:23.822Z,6.00
2019-05-09T20:27:53.898Z,3.80
2019-05-09T20:30:27.031Z,6.00
2019-05-09T20:32:56.896Z,7.00
2019-05-09T20:35:26.839Z,7.00
2019-05-09T20:37:57.168Z,8.60
2019-05-09T20:40:28.613Z,7.00
2019-05-09T20:42:59.171Z,6.80
2019-05-09T20:45:29.311Z,6.20
2019-05-09T20:47:59.584Z,8.60
2019-05-09T20:50:35.862Z,7.80
2019-05-09T20:53:09.692Z,9.00
2019-05-09T20:55:38.184Z,6.00
2019-05-09T20:58:08.154Z,8.60
2019-05-09T21:00:38.241Z,9.80
2019-05-09T21:03:08.299Z,9.60
2019-05-09T21:05:41.075Z,9.80
2019-05-09T21:08:11.098Z,6.00
2019-05-09T21:10:41.761Z,7.00
2019-05-09T21:13:11.938Z,12.40
2019-05-09T21:15:41.819Z,14.20
2019-05-09T21:18:12.652Z,12.00
2019-05-09T21:20:43.299Z,12.20
2019-05-09T21:23:24.238Z,15.00
2019-05-09T21:25:47.196Z,9.80
2019-05-09T21:28:17.242Z,14.60
2019-05-09T21:30:49.303Z,13.00
2019-05-09T21:33:19.219Z,13.80
2019-05-09T21:35:48.944Z,9.60
2019-05-09T21:38:18.788Z,15.00
2019-05-09T21:40:48.557Z,15.00
2019-05-09T21:43:19.224Z,19.60
2019-05-09T21:45:49.142Z,6.60
2019-05-09T21:48:19.116Z,16.00
2019-05-09T21:50:51.051Z,16.40
2019-05-09T21:53:20.999Z,12.20
2019-05-09T21:55:50.983Z,19.20
2019-05-09T21:58:24.145Z,18.00
2019-05-09T22:00:55.214Z,21.40
2019-05-09T22:03:25.371Z,14.20
2019-05-09T22:05:55.764Z,21.00
2019-05-09T22:08:25.748Z,10.80
2019-05-09T22:10:55.537Z,16.00
2019-05-09T22:13:25.422Z,15.00
2019-05-09T22:15:55.179Z,18.00
2019-05-09T22:18:26.572Z,18.20
2019-05-09T22:20:56.301Z,14.60
2019-05-09T22:23:28.067Z,17.60
2019-05-09T22:25:57.738Z,21.00
2019-05-09T22:28:27.727Z,15.80
2019-05-09T22:30:57.330Z,18.00
2019-05-09T22:33:27.669Z,18.20
2019-05-09T22:35:57.494Z,20.80
2019-05-09T22:38:27.738Z,22.00
2019-05-09T22:40:57.404Z,21.80
2019-05-09T22:43:27.434Z,19.00
2019-05-09T22:45:57.465Z,17.20
2019-05-09T22:48:27.506Z,20.60
2019-05-09T22:50:57.329Z,18.80
2019-05-09T22:53:36.832Z,15.40
2019-05-09T22:56:07.538Z,19.40
2019-05-09T22:58:39.044Z,21.00
2019-05-09T23:01:09.910Z,18.80
2019-05-09T23:03:40.733Z,19.40
2019-05-09T23:06:10.691Z,20.20
2019-05-09T23:08:40.990Z,14.40
2019-05-09T23:11:10.742Z,21.40
2019-05-09T23:13:52.663Z,15.00
2019-05-09T23:16:24.136Z,20.20
2019-05-09T23:18:54.197Z,15.60
2019-05-09T23:21:26.186Z,20.60
2019-05-09T23:24:07.494Z,19.00
2019-05-09T23:26:37.157Z,19.40
2019-05-09T23:29:13.129Z,15.40
2019-05-09T23:32:07.323Z,22.40
2019-05-09T23:34:37.113Z,15.80
2019-05-09T23:37:07.031Z,15.60
2019-05-09T23:39:41.128Z,21.20
2019-05-09T23:42:10.833Z,19.80
2019-05-09T23:44:40.617Z,20.60
2019-05-09T23:47:10.766Z,20.40
2019-05-09T23:49:40.645Z,18.60
2019-05-09T23:52:10.251Z,15.80
2019-05-09T23:54:57.812Z,20.60
2019-05-09T23:57:45.962Z,15.00
